Time;durP1;ratioP1;P1;durP2;ratioP2;P2;SDS_P1;SDS_P2;PMS_P1;PMS_P2;Temp;Humidity;BMP_temperature;BMP_pressure;BME280_temperature;BME280_humidity;BME280_pressure;Samples;Min_cycle;Max_cycle;Signal;HPM_P1;HPM_P2
2022/01/04 00:02:01;;;;;;;5.73;5.07;;;;;;;12.66;53.39;99390.78;5051810;28;20540;-57
2022/01/04 00:04:28;;;;;;;6.23;5.20;;;;;;;12.60;53.48;99383.03;5051811;28;20196;-57
2022/01/04 00:06:57;;;;;;;7.03;6.33;;;;;;;12.55;53.97;99382.13;5050815;28;20435;-57
2022/01/04 00:09:25;;;;;;;7.07;5.50;;;;;;;12.57;54.23;99385.56;5051516;28;20591;-57
2022/01/04 00:13:21;;;;;;;7.33;6.23;;;;;;;12.50;54.09;99379.50;5051695;28;20235;-57
2022/01/04 00:14:47;;;;;;;7.33;5.83;;;;;;;12.51;54.03;99382.94;5051463;28;20224;-57
2022/01/04 00:17:14;;;;;;;8.50;6.10;;;;;;;12.47;54.11;99388.94;5051604;28;20199;-57
2022/01/04 00:19:41;;;;;;;6.40;5.30;;;;;;;12.47;53.81;99386.38;5051419;28;20196;-57
2022/01/04 00:22:08;;;;;;;8.17;6.03;;;;;;;12.48;54.15;99380.34;5051177;28;20188;-58
2022/01/04 00:24:37;;;;;;;9.03;5.80;;;;;;;12.31;54.27;99378.53;5051013;28;20242;-58
2022/01/04 00:27:04;;;;;;;7.87;5.10;;;;;;;12.41;53.76;99393.19;5050815;28;20203;-57
2022/01/04 00:29:31;;;;;;;6.10;5.13;;;;;;;12.37;54.11;99398.31;5050799;28;20556;-58
2022/01/04 00:31:58;;;;;;;6.00;5.00;;;;;;;12.38;53.93;99400.91;5056432;28;20615;-57
2022/01/04 00:34:25;;;;;;;7.60;5.80;;;;;;;12.39;54.23;99401.75;5050773;28;20196;-57
2022/01/04 00:36:52;;;;;;;9.10;4.90;;;;;;;12.34;54.07;99378.53;5052573;28;20566;-57
2022/01/04 00:39:19;;;;;;;7.67;4.80;;;;;;;12.37;53.95;99394.03;5053367;28;20188;-57
2022/01/04 00:41:47;;;;;;;7.10;5.67;;;;;;;12.35;54.25;99400.91;5051143;28;20199;-57
2022/01/04 00:44:14;;;;;;;6.80;5.03;;;;;;;12.34;54.79;99398.28;5051091;28;20188;-57
2022/01/04 00:46:41;;;;;;;6.10;5.00;;;;;;;12.31;54.19;99391.41;5051001;28;20290;-57
2022/01/04 00:49:10;;;;;;;7.63;5.93;;;;;;;12.21;54.89;99396.47;5050540;28;20203;-57
2022/01/04 00:51:37;;;;;;;7.70;5.57;;;;;;;12.09;55.67;99392.09;5050481;28;20200;-57
2022/01/04 00:54:05;;;;;;;6.83;5.50;;;;;;;12.06;55.25;99399.78;5050755;28;20188;-57
2022/01/04 00:56:31;;;;;;;6.73;5.57;;;;;;;12.07;55.37;99386.06;5050068;28;20189;-56
2022/01/04 00:59:00;;;;;;;6.33;4.67;;;;;;;12.13;55.06;99383.53;5050579;28;20639;-57
2022/01/04 01:01:27;;;;;;;6.40;5.27;;;;;;;12.11;55.04;99376.66;5050762;28;20207;-56
2022/01/04 01:03:54;;;;;;;5.33;4.60;;;;;;;12.06;55.29;99375.75;5050940;28;20191;-57
2022/01/04 01:06:22;;;;;;;5.03;4.53;;;;;;;12.16;55.11;99383.56;5050766;28;20192;-57
2022/01/04 01:08:49;;;;;;;5.93;4.53;;;;;;;12.14;55.03;99392.97;5050697;28;20192;-57
2022/01/04 01:11:16;;;;;;;8.30;4.73;;;;;;;12.18;54.70;99384.44;5050263;28;20223;-57
2022/01/04 01:13:43;;;;;;;6.67;4.50;;;;;;;12.18;54.85;99386.16;5050436;28;20279;-57
2022/01/04 01:16:12;;;;;;;6.47;4.80;;;;;;;12.18;54.65;99379.28;5050377;28;20196;-57
2022/01/04 01:18:39;;;;;;;6.27;4.77;;;;;;;12.21;54.21;99373.28;5050367;28;20658;-57
2022/01/04 01:21:07;;;;;;;7.23;5.10;;;;;;;12.21;54.53;99386.19;5050388;28;20298;-57
2022/01/04 01:23:35;;;;;;;5.70;4.40;;;;;;;12.17;54.41;99363.81;5050505;28;20274;-57
2022/01/04 01:26:03;;;;;;;6.83;4.47;;;;;;;12.30;54.39;99381.97;5050373;28;20220;-57
2022/01/04 01:28:31;;;;;;;4.90;4.40;;;;;;;12.28;54.38;99383.66;5050177;28;20220;-57
2022/01/04 01:30:58;;;;;;;6.20;4.67;;;;;;;12.10;54.47;99351.75;5050331;28;21023;-57
2022/01/04 01:33:27;;;;;;;8.17;4.87;;;;;;;12.33;54.20;99381.97;5050554;28;20323;-57
2022/01/04 01:35:54;;;;;;;5.87;4.70;;;;;;;12.31;54.33;99368.22;5050409;28;20190;-57
2022/01/04 01:38:22;;;;;;;6.13;4.57;;;;;;;12.29;53.99;99375.09;5050281;28;20196;-57
2022/01/04 01:40:51;;;;;;;5.07;4.57;;;;;;;12.23;54.36;99369.88;5050246;28;20254;-57
2022/01/04 01:43:18;;;;;;;5.07;4.40;;;;;;;12.15;54.60;99374.09;5050042;28;20230;-57
2022/01/04 01:45:46;;;;;;;5.37;4.43;;;;;;;12.05;54.81;99348.28;5050330;28;20200;-57
2022/01/04 01:48:13;;;;;;;6.37;4.97;;;;;;;12.00;54.66;99343.09;5050008;28;20288;-57
2022/01/04 01:50:42;;;;;;;6.97;5.13;;;;;;;11.96;55.34;99348.19;5050031;28;20594;-57
2022/01/04 01:53:09;;;;;;;6.53;5.40;;;;;;;11.81;55.83;99328.34;5049937;28;20192;-57
2022/01/04 01:55:36;;;;;;;6.53;5.20;;;;;;;11.89;55.60;99349.00;5049943;28;20634;-57
2022/01/04 01:58:03;;;;;;;7.13;5.03;;;;;;;11.89;55.46;99349.88;5049957;28;20199;-57
2022/01/04 02:00:31;;;;;;;6.47;4.97;;;;;;;11.76;56.36;99348.88;5050092;28;20578;-57
2022/01/04 02:02:59;;;;;;;6.73;4.50;;;;;;;11.83;56.45;99357.53;5054004;28;20287;-57
2022/01/04 02:05:26;;;;;;;7.37;4.90;;;;;;;11.82;55.99;99360.94;5053900;28;20191;-57
2022/01/04 02:07:55;;;;;;;5.87;4.60;;;;;;;11.76;56.06;99364.31;5053792;28;20192;-57
2022/01/04 02:10:22;;;;;;;6.93;5.07;;;;;;;11.81;56.66;99362.66;5054074;28;20220;-57
2022/01/04 02:12:49;;;;;;;8.20;4.67;;;;;;;11.77;56.40;99360.03;5053788;28;20196;-57
2022/01/04 02:15:19;;;;;;;9.37;4.93;;;;;;;11.75;56.84;99357.47;5053855;28;20188;-57
2022/01/04 02:17:46;;;;;;;6.73;4.97;;;;;;;11.73;56.70;99355.72;5053869;28;20574;-57
2022/01/04 02:20:15;;;;;;;7.30;5.30;;;;;;;11.68;56.86;99349.63;5053801;28;20192;-58
2022/01/04 02:22:43;;;;;;;6.50;5.20;;;;;;;11.63;57.34;99359.00;5053671;28;20192;-58
2022/01/04 02:25:10;;;;;;;8.40;5.07;;;;;;;11.59;57.60;99362.44;5053520;28;20188;-57
2022/01/04 02:27:39;;;;;;;5.93;4.80;;;;;;;11.56;57.44;99368.41;5053122;28;20236;-57
2022/01/04 02:30:09;;;;;;;8.90;5.20;;;;;;;11.59;57.40;99365.00;5053804;28;20223;-56
2022/01/04 02:32:36;;;;;;;6.77;5.00;;;;;;;11.57;57.68;99366.66;5053659;28;20192;-57
2022/01/04 02:35:05;;;;;;;6.97;4.97;;;;;;;11.47;58.00;99370.00;5053361;28;20192;-57
2022/01/04 02:37:33;;;;;;;7.57;5.10;;;;;;;11.39;58.31;99361.34;5053231;28;20188;-57
2022/01/04 02:40:01;;;;;;;9.63;5.70;;;;;;;11.26;58.99;99356.06;5053564;28;20557;-57
2022/01/04 02:42:28;;;;;;;6.97;6.03;;;;;;;11.19;59.04;99359.41;5053493;28;20200;-57
2022/01/04 02:44:55;;;;;;;7.23;5.53;;;;;;;11.07;59.25;99353.28;5053410;28;20580;-57
2022/01/04 02:47:22;;;;;;;7.73;6.10;;;;;;;10.72;60.01;99321.97;5053309;28;20366;-58
2022/01/04 02:49:49;;;;;;;7.63;6.00;;;;;;;10.72;60.76;99355.38;5053016;28;20279;-58
2022/01/04 02:52:16;;;;;;;9.13;6.03;;;;;;;10.64;61.38;99363.00;5053334;28;20279;-58
2022/01/04 02:54:44;;;;;;;7.07;5.90;;;;;;;10.54;61.50;99373.13;5053113;28;20607;-58
2022/01/04 02:57:11;;;;;;;8.43;5.90;;;;;;;10.29;61.83;99347.94;5052947;28;20282;-58
2022/01/04 02:59:38;;;;;;;6.93;5.80;;;;;;;10.39;62.17;99386.59;5052962;28;20238;-57
2022/01/04 03:02:06;;;;;;;8.03;6.80;;;;;;;10.24;63.04;99383.81;5052782;28;20199;-57
2022/01/04 03:04:33;;;;;;;7.63;6.17;;;;;;;10.14;63.60;99393.88;5052643;28;20287;-57
2022/01/04 03:07:00;;;;;;;10.87;6.73;;;;;;;10.02;63.67;99391.97;5052832;28;20199;-56
2022/01/04 03:09:27;;;;;;;9.40;6.83;;;;;;;9.83;64.46;99389.94;5052800;28;20199;-57
2022/01/04 03:11:56;;;;;;;9.40;6.57;;;;;;;9.82;64.46;99393.31;5059789;28;20222;-57
2022/01/04 03:14:23;;;;;;;7.87;6.17;;;;;;;9.73;64.33;99381.19;5071819;28;20198;-56
2022/01/04 03:16:51;;;;;;;8.63;7.17;;;;;;;9.67;65.02;99372.53;5072515;28;20191;-57
2022/01/04 03:19:18;;;;;;;7.90;6.53;;;;;;;9.70;64.99;99377.69;5072421;28;20195;-56
2022/01/04 03:21:45;;;;;;;8.53;6.63;;;;;;;9.75;64.14;99365.84;5072417;28;20190;-57
2022/01/04 03:24:14;;;;;;;7.73;5.47;;;;;;;9.79;64.04;99375.31;5072568;28;20571;-56
2022/01/04 03:26:42;;;;;;;7.07;5.93;;;;;;;9.83;63.59;99369.41;5072290;28;20191;-57
2022/01/04 03:29:12;;;;;;;8.23;6.47;;;;;;;9.85;63.72;99366.03;5072280;28;20322;-57
2022/01/04 03:31:39;;;;;;;6.00;5.40;;;;;;;9.72;62.75;99328.19;5072690;28;20229;-57
2022/01/04 03:34:06;;;;;;;7.20;5.37;;;;;;;10.02;62.31;99369.75;5072198;28;20185;-57
2022/01/04 03:36:33;;;;;;;7.40;5.83;;;;;;;10.09;61.83;99370.69;5072218;28;20201;-58
2022/01/04 03:39:04;;;;;;;7.37;5.80;;;;;;;10.17;61.67;99369.13;5072249;28;20274;-57
2022/01/04 03:41:33;;;;;;;5.30;4.80;;;;;;;9.83;60.51;99298.41;5072274;28;20194;-58
2022/01/04 03:44:00;;;;;;;5.67;5.03;;;;;;;10.25;61.23;99377.81;5071787;28;20685;-58
2022/01/04 03:46:28;;;;;;;6.53;5.47;;;;;;;10.29;60.51;99379.59;5072446;28;20198;-58
2022/01/04 03:48:55;;;;;;;14.87;5.40;;;;;;;10.35;60.26;99378.84;5072183;28;20278;-58
2022/01/04 03:51:22;;;;;;;7.43;5.00;;;;;;;10.46;59.37;99378.16;5071998;28;20293;-57
2022/01/04 03:53:49;;;;;;;8.20;5.40;;;;;;;10.46;59.49;99382.44;5071927;28;20282;-57
2022/01/04 03:56:16;;;;;;;6.87;5.40;;;;;;;10.54;59.18;99381.72;5071553;28;20202;-57
2022/01/04 03:58:43;;;;;;;8.33;5.30;;;;;;;10.55;59.35;99382.53;5071366;28;20661;-58
2022/01/04 04:01:10;;;;;;;7.13;4.83;;;;;;;10.48;59.43;99380.75;5068638;28;20278;-58
2022/01/04 04:03:39;;;;;;;7.13;4.93;;;;;;;10.43;59.82;99384.94;5071217;28;20179;-58
2022/01/04 04:06:06;;;;;;;11.07;5.83;;;;;;;10.40;59.51;99384.91;5071297;28;20202;-58
2022/01/04 04:08:33;;;;;;;10.70;5.27;;;;;;;10.43;59.44;99388.38;5071807;28;20199;-57
2022/01/04 04:10:59;;;;;;;8.80;5.47;;;;;;;10.45;59.55;99385.81;5071495;28;20223;-57
2022/01/04 04:13:26;;;;;;;6.57;5.30;;;;;;;10.43;59.02;99387.53;5071848;28;20285;-58
2022/01/04 04:15:53;;;;;;;7.20;4.90;;;;;;;10.55;58.00;99385.09;5071567;28;20748;-57
2022/01/04 04:18:20;;;;;;;5.70;5.00;;;;;;;10.51;58.89;99393.63;5071509;28;20282;-57
2022/01/04 04:20:49;;;;;;;6.30;4.83;;;;;;;10.50;58.68;99386.75;5071311;28;20249;-57
2022/01/04 04:23:15;;;;;;;7.77;5.07;;;;;;;10.53;58.05;99391.94;5071455;28;20671;-58
2022/01/04 04:25:42;;;;;;;7.27;5.50;;;;;;;10.68;57.81;99383.59;5071304;28;20672;-57
2022/01/04 04:28:10;;;;;;;7.23;4.90;;;;;;;10.78;57.55;99381.16;5071224;28;20238;-57
2022/01/04 04:30:37;;;;;;;6.37;5.27;;;;;;;10.98;57.01;99381.44;5071359;28;20218;-57
2022/01/04 04:33:04;;;;;;;6.33;5.13;;;;;;;11.05;57.00;99380.66;5070725;28;20285;-58
2022/01/04 04:35:32;;;;;;;7.43;5.70;;;;;;;11.09;56.66;99378.16;5070665;28;20429;-57
2022/01/04 04:38:01;;;;;;;5.87;4.50;;;;;;;11.10;57.03;99379.00;5071364;28;20186;-56
2022/01/04 04:40:29;;;;;;;5.63;4.40;;;;;;;10.93;56.54;99350.50;5071133;28;20199;-56
2022/01/04 04:42:56;;;;;;;8.60;5.30;;;;;;;11.05;56.64;99383.22;5070917;28;20197;-56
2022/01/04 04:45:22;;;;;;;8.73;5.33;;;;;;;11.06;56.50;99382.41;5070857;28;20194;-57
2022/01/04 04:47:49;;;;;;;5.83;5.23;;;;;;;11.04;56.64;99374.66;5070713;28;20195;-57
2022/01/04 04:50:16;;;;;;;7.27;5.00;;;;;;;11.00;56.62;99379.75;5070682;28;20192;-57
2022/01/04 04:52:43;;;;;;;7.20;5.00;;;;;;;10.93;56.81;99383.09;5070756;28;20278;-57
2022/01/04 04:55:12;;;;;;;10.60;5.47;;;;;;;10.95;57.16;99383.97;5071039;28;20202;-57
2022/01/04 04:57:40;;;;;;;8.30;6.13;;;;;;;10.92;57.39;99386.50;5070701;28;20203;-57
2022/01/04 05:00:08;;;;;;;7.87;5.43;;;;;;;10.84;57.40;99391.53;5070663;28;20198;-57
2022/01/04 05:02:36;;;;;;;7.27;5.00;;;;;;;10.73;57.29;99381.94;5070488;28;20195;-56
2022/01/04 05:05:03;;;;;;;8.63;5.73;;;;;;;10.78;57.10;99386.31;5070561;28;20314;-57
2022/01/04 05:07:30;;;;;;;10.87;5.37;;;;;;;10.72;57.22;99380.22;5070802;28;20282;-56
2022/01/04 05:09:57;;;;;;;6.93;5.13;;;;;;;10.72;57.45;99387.91;5070788;28;20551;-57
2022/01/04 05:12:26;;;;;;;5.80;4.50;;;;;;;10.67;57.73;99382.72;5070693;28;20219;-57
2022/01/04 05:14:53;;;;;;;7.47;4.80;;;;;;;10.61;58.25;99380.06;5070174;28;20270;-56
2022/01/04 05:17:20;;;;;;;7.10;5.33;;;;;;;10.51;58.55;99378.22;5070161;28;20206;-56
2022/01/04 05:19:47;;;;;;;5.60;4.87;;;;;;;10.47;58.71;99373.88;5070014;28;20286;-57
2022/01/04 05:22:13;;;;;;;6.27;4.77;;;;;;;10.39;59.23;99372.88;5070318;28;20607;-57
2022/01/04 05:24:40;;;;;;;7.30;4.70;;;;;;;10.32;58.89;99365.94;5070432;28;20280;-57
2022/01/04 05:27:08;;;;;;;6.33;4.97;;;;;;;10.34;59.06;99364.25;5069939;28;20227;-57
2022/01/04 05:29:36;;;;;;;5.73;4.40;;;;;;;10.37;58.51;99364.31;5070332;28;20278;-56
2022/01/04 05:32:03;;;;;;;9.30;4.90;;;;;;;10.37;58.58;99374.59;5070142;28;20294;-58
2022/01/04 05:34:30;;;;;;;5.27;4.27;;;;;;;10.33;58.79;99375.41;5069932;28;20183;-56
2022/01/04 05:36:57;;;;;;;9.03;4.87;;;;;;;10.37;58.53;99383.16;5069819;28;20194;-57
2022/01/04 05:39:24;;;;;;;5.83;4.70;;;;;;;10.28;58.80;99379.56;5069786;28;20286;-57
2022/01/04 05:41:51;;;;;;;6.00;4.77;;;;;;;10.28;59.54;99407.81;5070197;28;20677;-57
2022/01/04 05:44:18;;;;;;;7.03;5.60;;;;;;;10.29;59.42;99404.41;5069924;28;20204;-57
2022/01/04 05:46:46;;;;;;;7.77;5.70;;;;;;;10.25;59.78;99397.50;5070122;28;20282;-57
2022/01/04 05:49:13;;;;;;;13.20;5.57;;;;;;;10.16;59.86;99394.78;5069802;28;20286;-57
2022/01/04 05:51:41;;;;;;;8.50;5.57;;;;;;;10.09;59.95;99386.97;5070130;28;20237;-57
2022/01/04 05:54:08;;;;;;;7.13;5.90;;;;;;;10.07;60.08;99393.78;5069536;28;20545;-57
2022/01/04 05:56:35;;;;;;;8.43;5.50;;;;;;;9.97;60.63;99383.34;5070115;28;20206;-57
2022/01/04 05:59:02;;;;;;;11.70;5.63;;;;;;;9.89;60.81;99388.31;5069824;28;20294;-56
2022/01/04 06:01:29;;;;;;;8.87;5.70;;;;;;;9.79;61.03;99395.84;5069952;28;20271;-58
2022/01/04 06:03:57;;;;;;;7.50;6.17;;;;;;;9.63;61.96;99391.28;5069423;28;20195;-58
2022/01/04 06:06:24;;;;;;;9.37;5.93;;;;;;;9.60;61.89;99392.09;5069713;28;20196;-57
2022/01/04 06:08:51;;;;;;;7.67;6.10;;;;;;;9.56;61.93;99392.84;5069613;28;20198;-58
2022/01/04 06:11:43;;;;;;;14.40;6.67;;;;;;;9.57;61.89;99392.03;5069636;28;20314;-57
2022/01/04 06:17:05;;;;;;;7.13;6.13;;;;;;;9.60;61.38;99409.16;5044679;28;20203;-56
2022/01/04 06:19:34;;;;;;;7.50;5.60;;;;;;;9.62;61.41;99407.47;5069195;28;20191;-56
2022/01/04 06:22:01;;;;;;;8.43;6.20;;;;;;;9.52;61.49;99397.91;5069252;28;20279;-57
2022/01/04 06:24:28;;;;;;;11.47;6.87;;;;;;;9.71;60.90;99408.53;5069494;28;20195;-57
2022/01/04 06:26:55;;;;;;;9.60;6.57;;;;;;;9.80;60.75;99415.53;5068893;28;20232;-58
2022/01/04 06:29:22;;;;;;;8.60;7.23;;;;;;;9.83;60.27;99406.16;5069406;28;20199;-58
2022/01/04 06:31:49;;;;;;;12.00;6.90;;;;;;;9.95;59.78;99408.97;5069061;28;20216;-57
2022/01/04 06:34:16;;;;;;;13.13;7.80;;;;;;;10.02;59.30;99412.50;5069005;28;20285;-57
2022/01/04 06:36:44;;;;;;;13.97;7.93;;;;;;;10.14;58.94;99409.28;5058649;28;20290;-57
2022/01/04 06:39:11;;;;;;;12.50;7.37;;;;;;;10.23;59.02;99402.63;5049186;28;20235;-58
2022/01/04 06:41:38;;;;;;;13.57;7.77;;;;;;;10.34;58.49;99400.22;5049088;28;20195;-58
2022/01/04 06:44:05;;;;;;;7.60;6.30;;;;;;;10.65;57.10;99404.97;5049290;28;20278;-58
2022/01/04 06:46:32;;;;;;;12.07;7.70;;;;;;;10.79;56.27;99397.47;5049124;28;20615;-58
2022/01/04 06:48:59;;;;;;;17.83;9.43;;;;;;;10.80;57.00;99418.03;5051018;28;20191;-59
2022/01/04 06:51:26;;;;;;;17.60;11.10;;;;;;;10.81;57.92;99421.47;5052606;28;20234;-59
2022/01/04 06:53:55;;;;;;;17.17;10.87;;;;;;;10.89;57.48;99425.00;5052417;28;20276;-59
2022/01/04 06:56:21;;;;;;;16.17;10.63;;;;;;;11.04;57.44;99431.19;5071490;28;20286;-58
2022/01/04 06:58:48;;;;;;;12.50;9.27;;;;;;;11.18;56.92;99429.69;5072451;28;20274;-58
2022/01/04 07:01:15;;;;;;;16.90;8.77;;;;;;;11.26;55.60;99433.22;5072282;28;20179;-58
2022/01/04 07:03:42;;;;;;;9.47;6.53;;;;;;;11.29;55.34;99445.25;5071913;28;20270;-58
2022/01/04 07:06:09;;;;;;;11.30;6.60;;;;;;;11.31;55.11;99437.56;5072380;28;20241;-58
2022/01/04 07:08:36;;;;;;;13.97;9.47;;;;;;;11.39;54.55;99438.50;5072349;28;20196;-58
2022/01/04 07:11:05;;;;;;;14.33;10.50;;;;;;;11.27;55.44;99434.06;5072291;28;20183;-59
2022/01/04 07:13:32;;;;;;;13.80;10.00;;;;;;;11.37;55.47;99427.34;5072596;28;20202;-59
2022/01/04 07:15:59;;;;;;;18.27;10.43;;;;;;;11.50;54.72;99434.34;5072253;28;20282;-58
2022/01/04 07:18:25;;;;;;;17.63;8.67;;;;;;;11.49;55.00;99422.31;5072347;28;20654;-58
2022/01/04 07:20:52;;;;;;;13.07;10.30;;;;;;;11.60;54.13;99418.16;5063514;28;20519;-58
2022/01/04 07:23:19;;;;;;;13.47;8.93;;;;;;;11.68;54.33;99406.25;5069196;28;20724;-58
2022/01/04 07:25:46;;;;;;;12.70;9.47;;;;;;;11.66;54.57;99403.66;5072391;28;20278;-58
2022/01/04 07:28:15;;;;;;;13.07;9.40;;;;;;;11.66;54.64;99407.94;5071583;28;20240;-59
2022/01/04 07:30:42;;;;;;;23.80;14.93;;;;;;;11.67;54.52;99399.38;5071894;28;20614;-59
2022/01/04 07:33:09;;;;;;;15.03;10.67;;;;;;;11.76;54.89;99394.34;5071765;28;20215;-58
2022/01/04 07:35:36;;;;;;;18.20;11.50;;;;;;;11.76;55.15;99409.78;5072429;28;20196;-59
2022/01/04 07:38:03;;;;;;;18.67;13.00;;;;;;;11.79;54.75;99412.41;5072010;28;20191;-59
2022/01/04 07:40:30;;;;;;;17.17;11.03;;;;;;;11.80;53.78;99414.13;5071707;28;20271;-58
2022/01/04 07:42:59;;;;;;;16.00;9.77;;;;;;;11.79;53.43;99407.25;5071852;28;20652;-58
2022/01/04 07:45:29;;;;;;;24.70;11.87;;;;;;;11.89;53.29;99409.09;5071906;28;20194;-60
2022/01/04 07:47:56;;;;;;;22.90;14.63;;;;;;;11.90;53.77;99407.34;5071283;28;20265;-59
2022/01/04 07:50:23;;;;;;;25.00;16.53;;;;;;;11.96;53.96;99407.41;5079662;28;20212;-59
2022/01/04 07:52:50;;;;;;;22.07;15.53;;;;;;;11.86;54.14;99418.47;5072622;28;20253;-58
2022/01/04 07:55:17;;;;;;;19.83;11.40;;;;;;;11.63;53.87;99359.88;5070722;28;20578;-59
2022/01/04 07:57:45;;;;;;;25.43;14.83;;;;;;;11.88;53.94;99417.66;5068724;28;20641;-59
2022/01/04 08:00:13;;;;;;;27.97;16.13;;;;;;;11.84;54.23;99418.44;5071300;28;20626;-58
2022/01/04 08:02:41;;;;;;;27.77;15.27;;;;;;;11.77;54.74;99380.63;5069545;28;20270;-60
2022/01/04 08:05:09;;;;;;;23.07;13.87;;;;;;;11.77;54.96;99409.81;5071246;28;20196;-58
2022/01/04 08:07:36;;;;;;;21.67;14.73;;;;;;;11.63;55.70;99416.50;5071572;28;20187;-59
2022/01/04 08:10:04;;;;;;;24.23;16.53;;;;;;;11.59;56.36;99398.44;5070852;28;20215;-58
2022/01/04 08:12:31;;;;;;;30.33;16.70;;;;;;;11.80;56.31;99421.84;5070844;28;20332;-58
2022/01/04 08:14:58;;;;;;;35.70;21.27;;;;;;;11.76;55.98;99418.38;5070909;28;20674;-58
2022/01/04 08:17:25;;;;;;;28.67;15.33;;;;;;;11.82;54.51;99425.31;5070823;28;20192;-58
2022/01/04 08:19:53;;;;;;;30.17;17.57;;;;;;;11.75;55.02;99418.38;5070872;28;20198;-58
2022/01/04 08:22:20;;;;;;;33.60;16.77;;;;;;;11.81;55.24;99429.56;5070697;28;20207;-58
2022/01/04 08:24:47;;;;;;;31.30;20.07;;;;;;;11.88;56.68;99433.09;5070455;28;20757;-59
2022/01/04 08:27:14;;;;;;;31.40;19.33;;;;;;;11.86;57.75;99439.94;5070746;28;20390;-58
2022/01/04 08:29:41;;;;;;;35.40;20.63;;;;;;;11.87;58.48;99438.25;5071189;28;20286;-57
2022/01/04 08:32:08;;;;;;;37.80;21.23;;;;;;;11.91;57.88;99440.84;5070743;28;20594;-57
2022/01/04 08:34:35;;;;;;;33.13;20.00;;;;;;;11.99;57.62;99446.06;5070806;28;20199;-59
2022/01/04 08:37:04;;;;;;;37.43;21.80;;;;;;;12.05;58.50;99462.44;5068791;28;20188;-58
2022/01/04 08:39:31;;;;;;;25.43;17.43;;;;;;;12.09;58.42;99450.44;5070046;28;20269;-59
2022/01/04 08:42:01;;;;;;;27.97;16.47;;;;;;;12.13;58.02;99450.50;5069446;28;20183;-59
2022/01/04 08:44:29;;;;;;;31.77;16.43;;;;;;;12.19;57.93;99442.84;5069912;28;20195;-58
2022/01/04 08:46:56;;;;;;;27.77;15.47;;;;;;;12.29;57.71;99447.22;5069323;28;20187;-58
2022/01/04 08:49:23;;;;;;;25.13;16.17;;;;;;;12.34;56.87;99442.94;5069212;28;20481;-57
2022/01/04 08:51:50;;;;;;;30.03;16.17;;;;;;;12.47;56.41;99440.50;5067911;28;20195;-57
2022/01/04 08:54:18;;;;;;;21.87;15.33;;;;;;;12.32;55.58;99412.88;5067722;28;20191;-57
2022/01/04 08:56:45;;;;;;;24.00;16.83;;;;;;;12.37;55.36;99414.63;5067361;28;20293;-57
2022/01/04 08:59:13;;;;;;;23.27;15.03;;;;;;;12.52;55.02;99431.06;5067160;28;20188;-57
2022/01/04 09:01:41;;;;;;;24.10;14.53;;;;;;;12.46;55.27;99406.13;5066616;28;20210;-59
2022/01/04 09:04:08;;;;;;;30.73;15.83;;;;;;;12.55;55.53;99424.22;5067342;28;20294;-57
2022/01/04 09:06:35;;;;;;;25.50;17.20;;;;;;;12.63;55.28;99420.00;5068520;28;20192;-57
2022/01/04 09:09:03;;;;;;;29.30;16.90;;;;;;;12.73;55.12;99420.91;5068459;28;20226;-56
2022/01/04 09:11:31;;;;;;;28.67;17.43;;;;;;;12.81;54.44;99404.63;5068492;28;20227;-58
2022/01/04 09:14:17;;;;;;;25.90;13.30;;;;;;;12.88;53.52;99411.53;5069943;28;20218;-58
2022/01/04 09:19:28;;;;;;;26.83;13.50;;;;;;;12.97;52.72;99395.25;5070060;28;20167;-57
2022/01/04 09:21:56;;;;;;;23.50;12.63;;;;;;;13.02;52.63;99396.13;5069909;28;20191;-57
2022/01/04 09:24:23;;;;;;;21.43;12.50;;;;;;;13.01;51.76;99389.25;5069848;28;20303;-57
2022/01/04 09:26:52;;;;;;;15.87;11.20;;;;;;;13.06;51.27;99400.47;5069664;28;20199;-57
2022/01/04 09:29:19;;;;;;;18.87;11.63;;;;;;;13.06;51.39;99395.31;5069708;28;20282;-59
2022/01/04 09:31:48;;;;;;;17.63;11.67;;;;;;;13.11;50.93;99395.34;5069633;28;20279;-57
2022/01/04 09:34:17;;;;;;;21.93;12.40;;;;;;;13.15;51.08;99389.34;5069770;28;20252;-57
2022/01/04 09:36:44;;;;;;;19.00;12.07;;;;;;;13.24;51.19;99379.91;5069734;28;20191;-57
2022/01/04 09:39:15;;;;;;;17.77;11.67;;;;;;;13.14;51.05;99349.81;5070047;28;20187;-57
2022/01/04 09:41:42;;;;;;;22.77;13.13;;;;;;;13.40;50.80;99363.66;5069322;28;20223;-57
2022/01/04 09:44:11;;;;;;;17.83;13.65;;;;;;;13.43;50.79;99355.91;5068721;28;20522;-57
2022/01/04 09:46:39;;;;;;;19.50;12.17;;;;;;;13.57;50.35;99359.38;5069420;28;20680;-58
2022/01/04 09:49:07;;;;;;;14.13;10.30;;;;;;;13.66;48.62;99347.34;5069716;28;20218;-58
2022/01/04 09:51:34;;;;;;;13.97;9.70;;;;;;;13.69;48.26;99344.75;5069554;28;20199;-58
2022/01/04 09:54:01;;;;;;;13.43;9.67;;;;;;;13.74;47.95;99345.63;5069270;28;20216;-58
2022/01/04 09:56:28;;;;;;;13.23;8.83;;;;;;;13.76;47.00;99337.03;5069273;28;20570;-57
2022/01/04 09:58:55;;;;;;;14.23;9.70;;;;;;;13.76;47.16;99329.28;5069247;28;20196;-57
2022/01/04 10:01:25;;;;;;;14.23;9.43;;;;;;;13.78;47.57;99317.25;5069308;28;20199;-57
2022/01/04 10:03:52;;;;;;;34.73;11.50;;;;;;;13.84;47.92;99321.56;5069290;28;20190;-57
2022/01/04 10:06:20;;;;;;;17.83;11.20;;;;;;;13.77;48.28;99292.28;5069268;28;20578;-57
2022/01/04 10:08:51;;;;;;;19.70;11.20;;;;;;;13.81;47.91;99287.97;5069347;28;20192;-58
2022/01/04 10:11:29;;;;;;;17.70;12.80;;;;;;;14.03;47.87;99316.41;5069285;28;20202;-57
2022/01/04 10:13:56;;;;;;;18.40;13.10;;;;;;;14.08;48.50;99311.22;5069171;28;20759;-57
2022/01/04 10:16:25;;;;;;;15.48;11.35;;;;;;;14.22;46.98;99306.91;5068131;28;20437;-58
2022/01/04 10:18:53;;;;;;;15.00;11.03;;;;;;;14.15;46.64;99292.25;5069147;28;20577;-58
2022/01/04 10:21:20;;;;;;;16.23;11.73;;;;;;;14.28;46.59;99300.84;5069357;28;20276;-57
2022/01/04 10:23:51;;;;;;;14.40;10.10;;;;;;;14.35;46.11;99297.41;5072580;28;20649;-58
2022/01/04 10:26:28;;;;;;;18.20;10.80;;;;;;;14.27;46.15;99273.28;5073120;28;20655;-58
2022/01/04 10:28:55;;;;;;;15.23;11.35;;;;;;;14.34;45.79;99281.03;5071843;28;20450;-57
2022/01/04 10:31:22;;;;;;;14.13;10.80;;;;;;;14.37;45.73;99282.75;5073058;28;20737;-58
2022/01/04 10:33:54;;;;;;;17.30;12.27;;;;;;;14.42;46.22;99270.72;5073093;28;20224;-58
2022/01/04 10:36:21;;;;;;;16.30;12.30;;;;;;;14.45;46.12;99261.19;5072530;28;20191;-57
2022/01/04 10:38:50;;;;;;;18.00;12.30;;;;;;;14.47;45.71;99259.50;5072765;28;20214;-58
2022/01/04 10:41:23;;;;;;;14.90;11.10;;;;;;;14.35;45.73;99248.31;5072234;28;20286;-57
2022/01/04 10:43:52;;;;;;;19.17;13.13;;;;;;;14.36;46.03;99244.88;5072770;28;20189;-58
2022/01/04 10:46:21;;;;;;;26.47;13.90;;;;;;;14.44;45.96;99248.28;5072653;28;20191;-58
2022/01/04 10:48:50;;;;;;;15.37;10.47;;;;;;;14.43;45.55;99243.97;5072559;28;20581;-58
2022/01/04 10:51:21;;;;;;;15.67;10.63;;;;;;;14.47;45.73;99246.56;5072631;28;20558;-58
2022/01/04 10:53:51;;;;;;;14.70;10.97;;;;;;;14.49;44.57;99233.63;5072621;28;20326;-59
2022/01/04 10:56:24;;;;;;;12.37;9.40;;;;;;;14.53;44.69;99231.00;5072294;28;20195;-57
2022/01/04 10:58:53;;;;;;;11.20;8.90;;;;;;;14.50;44.19;99227.59;5072269;28;20192;-58
2022/01/04 11:01:22;;;;;;;14.77;10.40;;;;;;;14.55;44.35;99224.13;5072319;28;20272;-58
2022/01/04 11:03:53;;;;;;;22.17;11.20;;;;;;;14.54;43.91;99229.28;5071886;28;20554;-57
2022/01/04 11:06:25;;;;;;;13.00;9.50;;;;;;;14.57;44.60;99218.94;5072297;28;20287;-58
2022/01/04 11:08:52;;;;;;;15.07;10.10;;;;;;;14.59;44.52;99214.59;5072160;28;20570;-58
2022/01/04 11:11:20;;;;;;;16.80;10.60;;;;;;;14.60;44.69;99206.88;5072088;28;20293;-57
2022/01/04 11:13:48;;;;;;;16.60;10.47;;;;;;;14.64;44.92;99213.72;5072063;28;20657;-58
2022/01/04 11:16:18;;;;;;;17.10;9.67;;;;;;;14.68;44.96;99215.44;5072083;28;20609;-58
2022/01/04 11:18:49;;;;;;;16.47;10.10;;;;;;;14.70;44.88;99200.78;5072085;28;20207;-58
2022/01/04 11:21:16;;;;;;;14.37;9.03;;;;;;;14.82;44.91;99214.50;5071961;28;20249;-58
2022/01/04 11:23:47;;;;;;;9.87;7.83;;;;;;;14.72;44.48;99208.53;5071602;28;20199;-58
2022/01/04 11:26:16;;;;;;;13.27;8.13;;;;;;;14.78;44.24;99216.25;5071384;28;20208;-59
2022/01/04 11:28:45;;;;;;;12.63;7.03;;;;;;;14.81;43.48;99205.00;5071646;28;20227;-57
2022/01/04 11:31:41;;;;;;;11.33;7.00;;;;;;;14.63;43.72;99206.84;5072038;28;20540;-57
2022/01/04 11:34:16;;;;;;;7.03;5.93;;;;;;;14.56;43.49;99199.97;5066112;28;20674;-58
2022/01/04 11:36:47;;;;;;;7.53;5.63;;;;;;;14.48;43.09;99203.44;5061759;28;20224;-58